sensor_id;sensor_type;location;lat;lon;timestamp;P1;durP1;ratioP1;P2;durP2;ratioP2
20511;SDS011;10414;52.074;5.126;2023-04-15T00:00:05;11.63;;;4.20;;
20511;SDS011;10414;52.074;5.126;2023-04-15T00:02:32;11.95;;;4.85;;
20511;SDS011;10414;52.074;5.126;2023-04-15T00:04:59;10.27;;;4.47;;
20511;SDS011;10414;52.074;5.126;2023-04-15T00:07:26;9.38;;;4.32;;
20511;SDS011;10414;52.074;5.126;2023-04-15T00:09:55;11.60;;;4.53;;
20511;SDS011;10414;52.074;5.126;2023-04-15T00:12:21;10.93;;;4.55;;
20511;SDS011;10414;52.074;5.126;2023-04-15T00:14:48;10.02;;;4.22;;
20511;SDS011;10414;52.074;5.126;2023-04-15T00:17:16;10.45;;;4.97;;
20511;SDS011;10414;52.074;5.126;2023-04-15T00:19:42;8.82;;;4.45;;
20511;SDS011;10414;52.074;5.126;2023-04-15T00:22:10;9.50;;;4.85;;
20511;SDS011;10414;52.074;5.126;2023-04-15T00:24:36;11.80;;;5.05;;
20511;SDS011;10414;52.074;5.126;2023-04-15T00:27:05;12.15;;;5.07;;
20511;SDS011;10414;52.074;5.126;2023-04-15T00:29:32;8.80;;;4.28;;
20511;SDS011;10414;52.074;5.126;2023-04-15T00:31:59;7.75;;;4.07;;
20511;SDS011;10414;52.074;5.126;2023-04-15T00:34:26;9.10;;;4.28;;
20511;SDS011;10414;52.074;5.126;2023-04-15T00:36:54;9.25;;;5.10;;
20511;SDS011;10414;52.074;5.126;2023-04-15T00:39:21;10.40;;;4.65;;
20511;SDS011;10414;52.074;5.126;2023-04-15T00:41:48;12.48;;;5.28;;
20511;SDS011;10414;52.074;5.126;2023-04-15T00:44:16;11.73;;;5.32;;
20511;SDS011;10414;52.074;5.126;2023-04-15T00:46:44;12.38;;;5.75;;
20511;SDS011;10414;52.074;5.126;2023-04-15T00:49:11;13.45;;;6.10;;
20511;SDS011;10414;52.074;5.126;2023-04-15T00:51:38;17.40;;;6.05;;
20511;SDS011;10414;52.074;5.126;2023-04-15T00:54:05;10.20;;;5.88;;
20511;SDS011;10414;52.074;5.126;2023-04-15T00:56:33;9.60;;;5.60;;
20511;SDS011;10414;52.074;5.126;2023-04-15T00:59:02;12.75;;;6.15;;
20511;SDS011;10414;52.074;5.126;2023-04-15T01:01:30;14.73;;;5.78;;
20511;SDS011;10414;52.074;5.126;2023-04-15T01:03:59;12.18;;;5.60;;
20511;SDS011;10414;52.074;5.126;2023-04-15T01:06:26;11.57;;;5.70;;
20511;SDS011;10414;52.074;5.126;2023-04-15T01:08:53;12.95;;;5.90;;
20511;SDS011;10414;52.074;5.126;2023-04-15T01:11:20;10.07;;;5.32;;
20511;SDS011;10414;52.074;5.126;2023-04-15T01:13:50;11.70;;;5.70;;
20511;SDS011;10414;52.074;5.126;2023-04-15T01:16:17;9.40;;;5.18;;
20511;SDS011;10414;52.074;5.126;2023-04-15T01:18:46;11.10;;;5.45;;
20511;SDS011;10414;52.074;5.126;2023-04-15T01:21:14;9.52;;;5.35;;
20511;SDS011;10414;52.074;5.126;2023-04-15T01:23:41;11.27;;;4.63;;
20511;SDS011;10414;52.074;5.126;2023-04-15T01:26:13;9.65;;;4.93;;
20511;SDS011;10414;52.074;5.126;2023-04-15T01:28:41;10.88;;;5.43;;
20511;SDS011;10414;52.074;5.126;2023-04-15T01:31:09;10.55;;;5.25;;
20511;SDS011;10414;52.074;5.126;2023-04-15T01:33:37;9.15;;;4.88;;
20511;SDS011;10414;52.074;5.126;2023-04-15T01:36:05;12.02;;;4.95;;
20511;SDS011;10414;52.074;5.126;2023-04-15T01:38:34;8.15;;;4.75;;
20511;SDS011;10414;52.074;5.126;2023-04-15T01:41:01;10.63;;;4.82;;
20511;SDS011;10414;52.074;5.126;2023-04-15T01:43:30;10.77;;;4.93;;
20511;SDS011;10414;52.074;5.126;2023-04-15T01:45:57;11.15;;;5.40;;
20511;SDS011;10414;52.074;5.126;2023-04-15T01:48:24;11.40;;;4.97;;
20511;SDS011;10414;52.074;5.126;2023-04-15T01:50:51;9.13;;;4.70;;
20511;SDS011;10414;52.074;5.126;2023-04-15T01:53:21;11.00;;;4.80;;
20511;SDS011;10414;52.074;5.126;2023-04-15T01:55:48;10.32;;;4.93;;
20511;SDS011;10414;52.074;5.126;2023-04-15T01:58:16;11.27;;;5.35;;
20511;SDS011;10414;52.074;5.126;2023-04-15T02:00:44;8.23;;;4.40;;
20511;SDS011;10414;52.074;5.126;2023-04-15T02:03:11;10.80;;;5.50;;
20511;SDS011;10414;52.074;5.126;2023-04-15T02:05:38;12.27;;;5.50;;
20511;SDS011;10414;52.074;5.126;2023-04-15T02:08:05;9.45;;;4.72;;
20511;SDS011;10414;52.074;5.126;2023-04-15T02:10:31;8.52;;;5.15;;
20511;SDS011;10414;52.074;5.126;2023-04-15T02:12:58;8.68;;;5.05;;
20511;SDS011;10414;52.074;5.126;2023-04-15T02:15:25;8.68;;;5.13;;
20511;SDS011;10414;52.074;5.126;2023-04-15T02:17:54;10.85;;;5.15;;
20511;SDS011;10414;52.074;5.126;2023-04-15T02:20:21;10.27;;;5.35;;
20511;SDS011;10414;52.074;5.126;2023-04-15T02:22:48;10.82;;;4.95;;
20511;SDS011;10414;52.074;5.126;2023-04-15T02:25:15;9.75;;;4.97;;
20511;SDS011;10414;52.074;5.126;2023-04-15T02:27:42;10.20;;;5.00;;
20511;SDS011;10414;52.074;5.126;2023-04-15T02:30:09;10.63;;;5.20;;
20511;SDS011;10414;52.074;5.126;2023-04-15T02:32:36;8.35;;;4.85;;
20511;SDS011;10414;52.074;5.126;2023-04-15T02:35:05;15.43;;;5.05;;
20511;SDS011;10414;52.074;5.126;2023-04-15T02:37:34;10.45;;;5.43;;
20511;SDS011;10414;52.074;5.126;2023-04-15T02:40:06;11.55;;;5.55;;
20511;SDS011;10414;52.074;5.126;2023-04-15T02:42:35;11.23;;;5.95;;
20511;SDS011;10414;52.074;5.126;2023-04-15T02:45:03;11.30;;;4.93;;
20511;SDS011;10414;52.074;5.126;2023-04-15T02:47:31;9.23;;;4.75;;
20511;SDS011;10414;52.074;5.126;2023-04-15T02:49:58;10.27;;;5.40;;
20511;SDS011;10414;52.074;5.126;2023-04-15T02:52:27;12.45;;;5.47;;
20511;SDS011;10414;52.074;5.126;2023-04-15T02:54:54;8.95;;;5.22;;
20511;SDS011;10414;52.074;5.126;2023-04-15T02:59:51;10.48;;;4.82;;
20511;SDS011;10414;52.074;5.126;2023-04-15T03:02:18;10.40;;;4.88;;
20511;SDS011;10414;52.074;5.126;2023-04-15T03:04:44;11.88;;;5.57;;
20511;SDS011;10414;52.074;5.126;2023-04-15T03:07:11;9.10;;;5.30;;
20511;SDS011;10414;52.074;5.126;2023-04-15T03:09:39;9.82;;;5.45;;
20511;SDS011;10414;52.074;5.126;2023-04-15T03:12:06;11.25;;;6.10;;
20511;SDS011;10414;52.074;5.126;2023-04-15T03:14:33;12.77;;;5.47;;
20511;SDS011;10414;52.074;5.126;2023-04-15T03:17:00;10.35;;;5.45;;
20511;SDS011;10414;52.074;5.126;2023-04-15T03:19:27;12.43;;;5.93;;
20511;SDS011;10414;52.074;5.126;2023-04-15T03:21:53;10.90;;;5.22;;
20511;SDS011;10414;52.074;5.126;2023-04-15T03:24:21;11.45;;;5.70;;
20511;SDS011;10414;52.074;5.126;2023-04-15T03:26:50;13.55;;;5.35;;
20511;SDS011;10414;52.074;5.126;2023-04-15T03:29:16;10.10;;;5.82;;
20511;SDS011;10414;52.074;5.126;2023-04-15T03:31:43;12.75;;;5.45;;
20511;SDS011;10414;52.074;5.126;2023-04-15T03:34:10;10.82;;;5.72;;
20511;SDS011;10414;52.074;5.126;2023-04-15T03:36:37;12.27;;;5.70;;
20511;SDS011;10414;52.074;5.126;2023-04-15T03:39:04;10.40;;;5.70;;
20511;SDS011;10414;52.074;5.126;2023-04-15T03:41:31;13.65;;;5.75;;
20511;SDS011;10414;52.074;5.126;2023-04-15T03:43:59;11.70;;;5.40;;
20511;SDS011;10414;52.074;5.126;2023-04-15T03:46:26;9.90;;;5.47;;
20511;SDS011;10414;52.074;5.126;2023-04-15T03:48:53;12.57;;;6.13;;
20511;SDS011;10414;52.074;5.126;2023-04-15T03:51:20;13.00;;;6.15;;
20511;SDS011;10414;52.074;5.126;2023-04-15T03:53:46;11.48;;;6.53;;
20511;SDS011;10414;52.074;5.126;2023-04-15T03:56:13;10.63;;;6.18;;
20511;SDS011;10414;52.074;5.126;2023-04-15T03:58:40;13.93;;;6.35;;
20511;SDS011;10414;52.074;5.126;2023-04-15T04:01:08;11.55;;;5.63;;
20511;SDS011;10414;52.074;5.126;2023-04-15T04:03:35;10.30;;;5.63;;
20511;SDS011;10414;52.074;5.126;2023-04-15T04:06:02;14.30;;;6.10;;
20511;SDS011;10414;52.074;5.126;2023-04-15T04:08:29;10.45;;;6.10;;
20511;SDS011;10414;52.074;5.126;2023-04-15T04:10:56;11.15;;;6.10;;
20511;SDS011;10414;52.074;5.126;2023-04-15T04:13:23;13.00;;;7.22;;
20511;SDS011;10414;52.074;5.126;2023-04-15T04:15:50;14.05;;;5.55;;
20511;SDS011;10414;52.074;5.126;2023-04-15T04:18:18;11.05;;;6.20;;
20511;SDS011;10414;52.074;5.126;2023-04-15T04:20:45;11.43;;;6.00;;
20511;SDS011;10414;52.074;5.126;2023-04-15T04:23:12;12.30;;;6.35;;
20511;SDS011;10414;52.074;5.126;2023-04-15T04:25:39;14.30;;;6.47;;
20511;SDS011;10414;52.074;5.126;2023-04-15T04:28:06;13.65;;;7.25;;
20511;SDS011;10414;52.074;5.126;2023-04-15T04:30:33;14.95;;;6.60;;
20511;SDS011;10414;52.074;5.126;2023-04-15T04:33:01;11.23;;;6.50;;
20511;SDS011;10414;52.074;5.126;2023-04-15T04:35:29;9.82;;;6.55;;
20511;SDS011;10414;52.074;5.126;2023-04-15T04:37:58;12.45;;;6.75;;
20511;SDS011;10414;52.074;5.126;2023-04-15T04:40:25;12.52;;;6.50;;
20511;SDS011;10414;52.074;5.126;2023-04-15T04:42:52;13.52;;;6.80;;
20511;SDS011;10414;52.074;5.126;2023-04-15T04:45:19;17.83;;;7.82;;
20511;SDS011;10414;52.074;5.126;2023-04-15T04:47:46;10.73;;;6.30;;
20511;SDS011;10414;52.074;5.126;2023-04-15T04:50:13;13.40;;;7.22;;
20511;SDS011;10414;52.074;5.126;2023-04-15T04:52:42;15.65;;;6.80;;
20511;SDS011;10414;52.074;5.126;2023-04-15T04:55:09;14.20;;;6.45;;
20511;SDS011;10414;52.074;5.126;2023-04-15T04:57:35;14.25;;;7.22;;
20511;SDS011;10414;52.074;5.126;2023-04-15T05:00:04;14.48;;;6.47;;
20511;SDS011;10414;52.074;5.126;2023-04-15T05:02:32;14.73;;;7.28;;
20511;SDS011;10414;52.074;5.126;2023-04-15T05:05:00;16.63;;;7.72;;
20511;SDS011;10414;52.074;5.126;2023-04-15T05:07:27;15.43;;;7.13;;
20511;SDS011;10414;52.074;5.126;2023-04-15T05:09:55;13.38;;;6.65;;
20511;SDS011;10414;52.074;5.126;2023-04-15T05:12:22;12.68;;;6.80;;
20511;SDS011;10414;52.074;5.126;2023-04-15T05:14:48;13.15;;;7.38;;
20511;SDS011;10414;52.074;5.126;2023-04-15T05:17:15;11.65;;;6.88;;
20511;SDS011;10414;52.074;5.126;2023-04-15T05:19:42;14.13;;;6.82;;
20511;SDS011;10414;52.074;5.126;2023-04-15T05:22:09;15.43;;;7.70;;
20511;SDS011;10414;52.074;5.126;2023-04-15T05:24:36;13.18;;;7.50;;
20511;SDS011;10414;52.074;5.126;2023-04-15T05:27:04;12.95;;;6.63;;
20511;SDS011;10414;52.074;5.126;2023-04-15T05:29:32;15.50;;;7.70;;
20511;SDS011;10414;52.074;5.126;2023-04-15T05:31:59;13.95;;;7.65;;
20511;SDS011;10414;52.074;5.126;2023-04-15T05:34:26;15.23;;;7.60;;
20511;SDS011;10414;52.074;5.126;2023-04-15T05:36:53;14.85;;;7.75;;
20511;SDS011;10414;52.074;5.126;2023-04-15T05:39:20;14.32;;;8.07;;
20511;SDS011;10414;52.074;5.126;2023-04-15T05:41:47;15.05;;;7.22;;
20511;SDS011;10414;52.074;5.126;2023-04-15T05:44:15;14.50;;;6.43;;
20511;SDS011;10414;52.074;5.126;2023-04-15T05:46:42;14.80;;;6.60;;
20511;SDS011;10414;52.074;5.126;2023-04-15T05:49:08;13.63;;;7.15;;
20511;SDS011;10414;52.074;5.126;2023-04-15T05:51:36;14.15;;;6.03;;
20511;SDS011;10414;52.074;5.126;2023-04-15T05:54:02;9.45;;;5.55;;
20511;SDS011;10414;52.074;5.126;2023-04-15T05:56:29;13.02;;;5.13;;
20511;SDS011;10414;52.074;5.126;2023-04-15T05:58:56;11.77;;;5.40;;
20511;SDS011;10414;52.074;5.126;2023-04-15T06:01:24;9.68;;;5.32;;
20511;SDS011;10414;52.074;5.126;2023-04-15T06:03:51;11.73;;;5.57;;
20511;SDS011;10414;52.074;5.126;2023-04-15T06:06:18;10.60;;;5.32;;
20511;SDS011;10414;52.074;5.126;2023-04-15T06:08:45;9.88;;;5.45;;
20511;SDS011;10414;52.074;5.126;2023-04-15T06:11:12;10.82;;;5.30;;
20511;SDS011;10414;52.074;5.126;2023-04-15T06:13:39;9.68;;;5.72;;
20511;SDS011;10414;52.074;5.126;2023-04-15T06:16:06;9.73;;;5.47;;
20511;SDS011;10414;52.074;5.126;2023-04-15T06:18:34;10.05;;;6.03;;
20511;SDS011;10414;52.074;5.126;2023-04-15T06:21:01;11.05;;;5.30;;
20511;SDS011;10414;52.074;5.126;2023-04-15T06:23:28;8.55;;;5.22;;
20511;SDS011;10414;52.074;5.126;2023-04-15T06:25:55;10.30;;;5.28;;
20511;SDS011;10414;52.074;5.126;2023-04-15T06:28:22;11.32;;;5.15;;
20511;SDS011;10414;52.074;5.126;2023-04-15T06:30:48;12.48;;;5.38;;
20511;SDS011;10414;52.074;5.126;2023-04-15T06:33:15;11.48;;;6.03;;
20511;SDS011;10414;52.074;5.126;2023-04-15T06:35:43;10.05;;;5.65;;
20511;SDS011;10414;52.074;5.126;2023-04-15T06:38:11;10.80;;;5.40;;
20511;SDS011;10414;52.074;5.126;2023-04-15T06:40:38;12.25;;;5.57;;
20511;SDS011;10414;52.074;5.126;2023-04-15T06:43:05;10.30;;;5.85;;
20511;SDS011;10414;52.074;5.126;2023-04-15T06:45:33;8.82;;;5.10;;
20511;SDS011;10414;52.074;5.126;2023-04-15T06:48:00;12.68;;;5.65;;
20511;SDS011;10414;52.074;5.126;2023-04-15T06:50:27;10.38;;;6.22;;
20511;SDS011;10414;52.074;5.126;2023-04-15T06:52:55;10.27;;;5.78;;
20511;SDS011;10414;52.074;5.126;2023-04-15T06:55:22;10.63;;;6.00;;
20511;SDS011;10414;52.074;5.126;2023-04-15T06:57:49;9.63;;;5.80;;
20511;SDS011;10414;52.074;5.126;2023-04-15T07:00:16;9.18;;;5.75;;
20511;SDS011;10414;52.074;5.126;2023-04-15T07:02:43;13.45;;;6.65;;
20511;SDS011;10414;52.074;5.126;2023-04-15T07:05:10;10.02;;;6.30;;
20511;SDS011;10414;52.074;5.126;2023-04-15T07:07:37;8.10;;;5.07;;
20511;SDS011;10414;52.074;5.126;2023-04-15T07:10:06;13.13;;;6.65;;
20511;SDS011;10414;52.074;5.126;2023-04-15T07:12:34;9.97;;;6.30;;
20511;SDS011;10414;52.074;5.126;2023-04-15T07:15:01;11.55;;;5.88;;
20511;SDS011;10414;52.074;5.126;2023-04-15T07:17:28;13.20;;;6.28;;
20511;SDS011;10414;52.074;5.126;2023-04-15T07:19:55;8.95;;;6.18;;
20511;SDS011;10414;52.074;5.126;2023-04-15T07:22:22;9.45;;;5.80;;
20511;SDS011;10414;52.074;5.126;2023-04-15T07:24:48;11.75;;;5.72;;
20511;SDS011;10414;52.074;5.126;2023-04-15T07:27:17;10.10;;;6.03;;
20511;SDS011;10414;52.074;5.126;2023-04-15T07:29:44;10.55;;;5.88;;
20511;SDS011;10414;52.074;5.126;2023-04-15T07:32:11;9.00;;;5.63;;
20511;SDS011;10414;52.074;5.126;2023-04-15T07:34:38;10.43;;;6.05;;
20511;SDS011;10414;52.074;5.126;2023-04-15T07:37:05;8.07;;;4.88;;
20511;SDS011;10414;52.074;5.126;2023-04-15T07:39:32;8.02;;;4.60;;
20511;SDS011;10414;52.074;5.126;2023-04-15T07:41:59;9.20;;;5.10;;
20511;SDS011;10414;52.074;5.126;2023-04-15T07:44:27;10.05;;;4.78;;
20511;SDS011;10414;52.074;5.126;2023-04-15T07:46:54;9.40;;;5.30;;
20511;SDS011;10414;52.074;5.126;2023-04-15T07:49:21;6.93;;;4.30;;
20511;SDS011;10414;52.074;5.126;2023-04-15T07:51:48;7.30;;;4.10;;
20511;SDS011;10414;52.074;5.126;2023-04-15T07:54:15;7.57;;;4.53;;
20511;SDS011;10414;52.074;5.126;2023-04-15T07:56:42;7.13;;;4.03;;
20511;SDS011;10414;52.074;5.126;2023-04-15T07:59:09;6.50;;;3.90;;
20511;SDS011;10414;52.074;5.126;2023-04-15T08:01:37;6.18;;;3.70;;
20511;SDS011;10414;52.074;5.126;2023-04-15T08:04:04;7.78;;;4.40;;
20511;SDS011;10414;52.074;5.126;2023-04-15T08:06:31;9.13;;;4.90;;
20511;SDS011;10414;52.074;5.126;2023-04-15T08:08:58;7.50;;;4.18;;
20511;SDS011;10414;52.074;5.126;2023-04-15T08:11:25;7.85;;;4.55;;
20511;SDS011;10414;52.074;5.126;2023-04-15T08:13:52;8.27;;;4.70;;
20511;SDS011;10414;52.074;5.126;2023-04-15T08:16:20;7.70;;;3.85;;
20511;SDS011;10414;52.074;5.126;2023-04-15T08:18:50;8.68;;;3.47;;
20511;SDS011;10414;52.074;5.126;2023-04-15T08:21:18;10.27;;;3.92;;
20511;SDS011;10414;52.074;5.126;2023-04-15T08:23:45;6.57;;;3.83;;
20511;SDS011;10414;52.074;5.126;2023-04-15T08:26:14;9.70;;;4.72;;
20511;SDS011;10414;52.074;5.126;2023-04-15T08:28:41;15.90;;;4.57;;
20511;SDS011;10414;52.074;5.126;2023-04-15T08:31:09;14.18;;;4.90;;
20511;SDS011;10414;52.074;5.126;2023-04-15T08:33:37;11.88;;;5.22;;
20511;SDS011;10414;52.074;5.126;2023-04-15T08:36:05;7.97;;;4.45;;
20511;SDS011;10414;52.074;5.126;2023-04-15T08:38:32;8.07;;;4.85;;
20511;SDS011;10414;52.074;5.126;2023-04-15T08:40:59;8.70;;;4.25;;
20511;SDS011;10414;52.074;5.126;2023-04-15T08:43:32;7.18;;;4.20;;
20511;SDS011;10414;52.074;5.126;2023-04-15T08:46:00;7.90;;;4.45;;
20511;SDS011;10414;52.074;5.126;2023-04-15T08:48:31;8.18;;;4.80;;
20511;SDS011;10414;52.074;5.126;2023-04-15T08:50:58;8.88;;;3.70;;
20511;SDS011;10414;52.074;5.126;2023-04-15T08:53:27;9.20;;;4.20;;
20511;SDS011;10414;52.074;5.126;2023-04-15T08:55:55;8.90;;;4.18;;
20511;SDS011;10414;52.074;5.126;2023-04-15T08:58:23;6.53;;;2.72;;
20511;SDS011;10414;52.074;5.126;2023-04-15T09:00:50;6.55;;;3.17;;
20511;SDS011;10414;52.074;5.126;2023-04-15T09:03:18;9.48;;;3.40;;
20511;SDS011;10414;52.074;5.126;2023-04-15T09:05:47;6.60;;;3.15;;
20511;SDS011;10414;52.074;5.126;2023-04-15T09:08:15;6.60;;;3.30;;
20511;SDS011;10414;52.074;5.126;2023-04-15T09:10:43;8.88;;;3.50;;
20511;SDS011;10414;52.074;5.126;2023-04-15T09:13:10;6.43;;;3.25;;
20511;SDS011;10414;52.074;5.126;2023-04-15T09:15:37;10.15;;;4.07;;
20511;SDS011;10414;52.074;5.126;2023-04-15T09:18:04;7.22;;;3.47;;
20511;SDS011;10414;52.074;5.126;2023-04-15T09:20:37;7.47;;;4.00;;
20511;SDS011;10414;52.074;5.126;2023-04-15T09:23:10;8.13;;;3.28;;
20511;SDS011;10414;52.074;5.126;2023-04-15T09:25:38;7.07;;;2.80;;
20511;SDS011;10414;52.074;5.126;2023-04-15T09:28:07;6.07;;;2.50;;
20511;SDS011;10414;52.074;5.126;2023-04-15T09:30:34;5.30;;;2.60;;
20511;SDS011;10414;52.074;5.126;2023-04-15T09:33:02;5.70;;;2.60;;
20511;SDS011;10414;52.074;5.126;2023-04-15T09:38:03;6.82;;;2.58;;
20511;SDS011;10414;52.074;5.126;2023-04-15T09:40:31;5.68;;;2.30;;
20511;SDS011;10414;52.074;5.126;2023-04-15T09:42:59;5.82;;;2.33;;
20511;SDS011;10414;52.074;5.126;2023-04-15T09:45:28;5.25;;;2.50;;
20511;SDS011;10414;52.074;5.126;2023-04-15T09:47:56;5.85;;;3.10;;
20511;SDS011;10414;52.074;5.126;2023-04-15T09:50:26;10.27;;;3.08;;
20511;SDS011;10414;52.074;5.126;2023-04-15T09:52:53;7.45;;;3.38;;
20511;SDS011;10414;52.074;5.126;2023-04-15T09:55:20;6.90;;;3.28;;
20511;SDS011;10414;52.074;5.126;2023-04-15T09:57:47;7.70;;;3.38;;
20511;SDS011;10414;52.074;5.126;2023-04-15T10:00:14;7.18;;;2.97;;
20511;SDS011;10414;52.074;5.126;2023-04-15T10:02:43;7.90;;;3.25;;
20511;SDS011;10414;52.074;5.126;2023-04-15T10:05:12;6.57;;;3.00;;
20511;SDS011;10414;52.074;5.126;2023-04-15T10:07:40;6.30;;;2.80;;
20511;SDS011;10414;52.074;5.126;2023-04-15T10:10:08;6.30;;;2.75;;
20511;SDS011;10414;52.074;5.126;2023-04-15T10:12:36;8.02;;;3.20;;
20511;SDS011;10414;52.074;5.126;2023-04-15T10:15:06;4.90;;;2.50;;
20511;SDS011;10414;52.074;5.126;2023-04-15T10:17:40;5.90;;;2.45;;
20511;SDS011;10414;52.074;5.126;2023-04-15T10:20:10;6.30;;;2.42;;
20511;SDS011;10414;52.074;5.126;2023-04-15T10:22:39;8.65;;;2.65;;
20511;SDS011;10414;52.074;5.126;2023-04-15T10:25:07;4.40;;;2.33;;
20511;SDS011;10414;52.074;5.126;2023-04-15T10:27:37;6.40;;;2.38;;
20511;SDS011;10414;52.074;5.126;2023-04-15T10:30:06;5.10;;;2.40;;
20511;SDS011;10414;52.074;5.126;2023-04-15T10:32:33;4.43;;;2.65;;
20511;SDS011;10414;52.074;5.126;2023-04-15T10:35:02;3.92;;;2.00;;
20511;SDS011;10414;52.074;5.126;2023-04-15T10:39:59;4.60;;;2.33;;
20511;SDS011;10414;52.074;5.126;2023-04-15T10:42:32;4.20;;;2.15;;
20511;SDS011;10414;52.074;5.126;2023-04-15T10:45:00;3.95;;;1.80;;
20511;SDS011;10414;52.074;5.126;2023-04-15T10:47:27;3.75;;;2.10;;
20511;SDS011;10414;52.074;5.126;2023-04-15T10:49:56;4.18;;;1.85;;
20511;SDS011;10414;52.074;5.126;2023-04-15T10:52:26;4.25;;;2.03;;
20511;SDS011;10414;52.074;5.126;2023-04-15T10:55:00;5.72;;;2.45;;
20511;SDS011;10414;52.074;5.126;2023-04-15T10:57:33;5.07;;;2.40;;
20511;SDS011;10414;52.074;5.126;2023-04-15T11:00:09;5.03;;;2.50;;
20511;SDS011;10414;52.074;5.126;2023-04-15T11:02:41;5.95;;;2.83;;
20511;SDS011;10414;52.074;5.126;2023-04-15T11:05:10;4.93;;;2.45;;
20511;SDS011;10414;52.074;5.126;2023-04-15T11:07:40;4.00;;;2.10;;
20511;SDS011;10414;52.074;5.126;2023-04-15T11:15:42;5.72;;;3.00;;
20511;SDS011;10414;52.074;5.126;2023-04-15T11:18:10;6.75;;;3.22;;
20511;SDS011;10414;52.074;5.126;2023-04-15T11:20:41;5.90;;;2.95;;
20511;SDS011;10414;52.074;5.126;2023-04-15T11:23:11;6.15;;;3.28;;
20511;SDS011;10414;52.074;5.126;2023-04-15T11:25:39;8.05;;;2.35;;
20511;SDS011;10414;52.074;5.126;2023-04-15T11:28:06;7.60;;;2.45;;
20511;SDS011;10414;52.074;5.126;2023-04-15T11:30:34;6.25;;;2.88;;
20511;SDS011;10414;52.074;5.126;2023-04-15T11:33:03;6.70;;;2.85;;
20511;SDS011;10414;52.074;5.126;2023-04-15T11:35:30;5.75;;;2.78;;
20511;SDS011;10414;52.074;5.126;2023-04-15T11:38:01;5.05;;;2.63;;
20511;SDS011;10414;52.074;5.126;2023-04-15T11:40:30;5.80;;;2.92;;
20511;SDS011;10414;52.074;5.126;2023-04-15T11:43:02;7.78;;;3.35;;
20511;SDS011;10414;52.074;5.126;2023-04-15T11:45:30;4.80;;;2.47;;
20511;SDS011;10414;52.074;5.126;2023-04-15T11:48:03;6.32;;;2.97;;
20511;SDS011;10414;52.074;5.126;2023-04-15T11:50:31;5.40;;;3.17;;
20511;SDS011;10414;52.074;5.126;2023-04-15T11:53:00;4.68;;;2.33;;
20511;SDS011;10414;52.074;5.126;2023-04-15T11:55:28;4.03;;;2.10;;
20511;SDS011;10414;52.074;5.126;2023-04-15T11:58:07;3.45;;;1.60;;
20511;SDS011;10414;52.074;5.126;2023-04-15T12:00:35;4.10;;;1.90;;
20511;SDS011;10414;52.074;5.126;2023-04-15T12:03:13;4.72;;;1.90;;
20511;SDS011;10414;52.074;5.126;2023-04-15T12:11:37;3.85;;;1.90;;
20511;SDS011;10414;52.074;5.126;2023-04-15T12:14:09;4.00;;;1.75;;
20511;SDS011;10414;52.074;5.126;2023-04-15T12:16:39;3.88;;;1.70;;
20511;SDS011;10414;52.074;5.126;2023-04-15T12:19:08;6.63;;;1.80;;
20511;SDS011;10414;52.074;5.126;2023-04-15T12:21:37;4.00;;;2.10;;
20511;SDS011;10414;52.074;5.126;2023-04-15T12:24:05;4.35;;;1.80;;
20511;SDS011;10414;52.074;5.126;2023-04-15T12:26:36;4.95;;;1.80;;
20511;SDS011;10414;52.074;5.126;2023-04-15T12:29:04;6.72;;;2.00;;
20511;SDS011;10414;52.074;5.126;2023-04-15T12:31:32;4.53;;;2.00;;
20511;SDS011;10414;52.074;5.126;2023-04-15T12:34:00;4.15;;;1.85;;
20511;SDS011;10414;52.074;5.126;2023-04-15T12:36:27;4.07;;;1.80;;
20511;SDS011;10414;52.074;5.126;2023-04-15T12:38:57;5.60;;;1.93;;
20511;SDS011;10414;52.074;5.126;2023-04-15T12:41:24;4.47;;;2.05;;
20511;SDS011;10414;52.074;5.126;2023-04-15T12:43:52;7.90;;;2.50;;
20511;SDS011;10414;52.074;5.126;2023-04-15T12:46:19;5.93;;;2.60;;
20511;SDS011;10414;52.074;5.126;2023-04-15T12:48:46;5.43;;;2.45;;
20511;SDS011;10414;52.074;5.126;2023-04-15T12:51:12;8.35;;;2.20;;
20511;SDS011;10414;52.074;5.126;2023-04-15T12:53:40;5.53;;;2.42;;
20511;SDS011;10414;52.074;5.126;2023-04-15T12:56:07;5.57;;;2.10;;
20511;SDS011;10414;52.074;5.126;2023-04-15T12:58:34;4.72;;;2.47;;
20511;SDS011;10414;52.074;5.126;2023-04-15T13:01:02;5.07;;;2.70;;
20511;SDS011;10414;52.074;5.126;2023-04-15T13:03:30;6.55;;;2.47;;
20511;SDS011;10414;52.074;5.126;2023-04-15T13:05:57;5.63;;;2.80;;
20511;SDS011;10414;52.074;5.126;2023-04-15T13:08:26;6.85;;;2.30;;
20511;SDS011;10414;52.074;5.126;2023-04-15T13:10:53;5.53;;;1.83;;
20511;SDS011;10414;52.074;5.126;2023-04-15T13:13:20;5.20;;;2.10;;
20511;SDS011;10414;52.074;5.126;2023-04-15T13:15:46;6.20;;;1.80;;
20511;SDS011;10414;52.074;5.126;2023-04-15T13:18:15;5.05;;;2.08;;
20511;SDS011;10414;52.074;5.126;2023-04-15T13:20:42;3.95;;;1.88;;
20511;SDS011;10414;52.074;5.126;2023-04-15T13:23:08;4.15;;;1.90;;
20511;SDS011;10414;52.074;5.126;2023-04-15T13:25:35;6.80;;;2.13;;
20511;SDS011;10414;52.074;5.126;2023-04-15T13:28:02;5.82;;;1.98;;
20511;SDS011;10414;52.074;5.126;2023-04-15T13:30:29;4.50;;;1.80;;
20511;SDS011;10414;52.074;5.126;2023-04-15T13:32:56;4.57;;;1.92;;
20511;SDS011;10414;52.074;5.126;2023-04-15T13:35:24;3.80;;;1.67;;
20511;SDS011;10414;52.074;5.126;2023-04-15T13:37:52;5.40;;;1.77;;
20511;SDS011;10414;52.074;5.126;2023-04-15T13:40:20;4.82;;;1.50;;
20511;SDS011;10414;52.074;5.126;2023-04-15T13:42:47;5.85;;;1.70;;
20511;SDS011;10414;52.074;5.126;2023-04-15T13:45:14;4.25;;;1.40;;
20511;SDS011;10414;52.074;5.126;2023-04-15T13:47:41;4.40;;;1.33;;
20511;SDS011;10414;52.074;5.126;2023-04-15T13:50:09;4.80;;;1.40;;
20511;SDS011;10414;52.074;5.126;2023-04-15T13:52:37;3.70;;;1.30;;
20511;SDS011;10414;52.074;5.126;2023-04-15T13:55:05;5.35;;;1.50;;
20511;SDS011;10414;52.074;5.126;2023-04-15T13:57:33;2.60;;;1.05;;
20511;SDS011;10414;52.074;5.126;2023-04-15T14:00:00;3.65;;;1.05;;
20511;SDS011;10414;52.074;5.126;2023-04-15T14:02:28;3.33;;;1.10;;
20511;SDS011;10414;52.074;5.126;2023-04-15T14:04:55;6.13;;;1.10;;
20511;SDS011;10414;52.074;5.126;2023-04-15T14:07:22;4.65;;;1.20;;
20511;SDS011;10414;52.074;5.126;2023-04-15T14:09:50;5.05;;;1.50;;
20511;SDS011;10414;52.074;5.126;2023-04-15T14:12:17;4.78;;;1.35;;
20511;SDS011;10414;52.074;5.126;2023-04-15T14:14:44;3.60;;;1.15;;
20511;SDS011;10414;52.074;5.126;2023-04-15T14:17:11;5.13;;;1.33;;
20511;SDS011;10414;52.074;5.126;2023-04-15T14:19:38;2.90;;;1.10;;
20511;SDS011;10414;52.074;5.126;2023-04-15T14:22:05;5.82;;;1.40;;
20511;SDS011;10414;52.074;5.126;2023-04-15T14:24:31;6.82;;;1.40;;
20511;SDS011;10414;52.074;5.126;2023-04-15T14:27:00;3.63;;;1.52;;
20511;SDS011;10414;52.074;5.126;2023-04-15T14:29:26;5.68;;;1.63;;
20511;SDS011;10414;52.074;5.126;2023-04-15T14:31:53;4.50;;;1.25;;
20511;SDS011;10414;52.074;5.126;2023-04-15T14:34:21;4.20;;;1.30;;
20511;SDS011;10414;52.074;5.126;2023-04-15T14:36:49;3.55;;;1.30;;
20511;SDS011;10414;52.074;5.126;2023-04-15T14:39:17;4.85;;;1.23;;
20511;SDS011;10414;52.074;5.126;2023-04-15T14:41:44;3.67;;;1.60;;
20511;SDS011;10414;52.074;5.126;2023-04-15T14:44:12;6.78;;;1.27;;
20511;SDS011;10414;52.074;5.126;2023-04-15T14:46:39;4.40;;;1.30;;
20511;SDS011;10414;52.074;5.126;2023-04-15T14:49:06;5.57;;;1.58;;
20511;SDS011;10414;52.074;5.126;2023-04-15T14:51:33;3.58;;;1.25;;
20511;SDS011;10414;52.074;5.126;2023-04-15T14:54:00;3.65;;;1.35;;
20511;SDS011;10414;52.074;5.126;2023-04-15T14:56:27;6.53;;;1.23;;
20511;SDS011;10414;52.074;5.126;2023-04-15T14:58:53;4.10;;;1.00;;
20511;SDS011;10414;52.074;5.126;2023-04-15T15:01:22;4.97;;;1.10;;
20511;SDS011;10414;52.074;5.126;2023-04-15T15:03:49;6.03;;;1.23;;